Time;durP1;ratioP1;P1;durP2;ratioP2;P2;SDS_P1;SDS_P2;PMS_P1;PMS_P2;Temp;Humidity;BMP_temperature;BMP_pressure;BME280_temperature;BME280_humidity;BME280_pressure;Samples;Min_cycle;Max_cycle;Signal;HPM_P1;HPM_P2
2023/09/25 00:01:48;;;;;;;2.90;1.90;;;;;;;11.94;97.43;100962.81;4967733;28;20192;-78
2023/09/25 00:04:13;;;;;;;2.83;2.00;;;;;;;11.92;96.54;100960.22;4965625;28;20294;-78
2023/09/25 00:06:38;;;;;;;2.33;1.70;;;;;;;11.86;96.96;100955.06;4965731;28;20245;-78
2023/09/25 00:09:05;;;;;;;3.03;1.60;;;;;;;11.82;96.88;100954.22;4963351;28;20200;-78
2023/09/25 00:11:31;;;;;;;2.20;1.90;;;;;;;11.81;96.40;100959.38;4965685;28;20218;-78
2023/09/25 00:13:56;;;;;;;3.07;1.90;;;;;;;11.82;95.52;100956.81;4967142;28;20763;-79
2023/09/25 00:16:22;;;;;;;2.00;1.43;;;;;;;11.81;95.93;100956.78;4967214;28;20210;-79
2023/09/25 00:18:47;;;;;;;2.10;1.73;;;;;;;11.82;95.94;100953.34;4982009;28;20206;-79
2023/09/25 00:21:13;;;;;;;3.10;1.90;;;;;;;11.84;94.89;100968.03;4971452;28;20630;-78
2023/09/25 00:23:38;;;;;;;2.03;1.70;;;;;;;11.83;94.56;100957.66;4963596;28;20325;-77
2023/09/25 00:26:06;;;;;;;2.63;2.07;;;;;;;11.84;94.64;100965.44;4960797;28;20249;-77
2023/09/25 00:28:31;;;;;;;2.60;1.70;;;;;;;11.82;95.25;100953.34;4960271;28;20226;-78
2023/09/25 00:30:57;;;;;;;3.53;1.97;;;;;;;11.83;96.31;100955.06;4964798;28;20283;-77
2023/09/25 00:33:22;;;;;;;3.03;2.10;;;;;;;11.79;95.43;100955.97;4955972;28;20196;-78
2023/09/25 00:35:47;;;;;;;2.43;1.80;;;;;;;11.84;94.58;100961.97;4962446;28;20256;-79
2023/09/25 00:38:13;;;;;;;2.13;1.93;;;;;;;11.76;95.48;100958.56;4968430;28;20212;-79
2023/09/25 00:40:39;;;;;;;2.93;1.83;;;;;;;11.71;96.29;100966.34;4968564;28;20224;-78
2023/09/25 00:43:07;;;;;;;2.93;2.10;;;;;;;11.67;97.31;100959.44;4961810;28;20244;-78
2023/09/25 00:45:37;;;;;;;2.33;2.00;;;;;;;11.60;98.06;100958.59;4963925;28;20193;-78
2023/09/25 00:48:04;;;;;;;2.63;1.87;;;;;;;11.53;98.75;100962.94;4955238;28;20945;-78
2023/09/25 00:50:31;;;;;;;2.30;1.60;;;;;;;11.47;99.68;100962.94;4966806;28;20182;-78
2023/09/25 00:53:02;;;;;;;2.77;1.77;;;;;;;11.42;100.00;100955.19;4966629;28;20212;-77
2023/09/25 00:55:28;;;;;;;2.20;1.93;;;;;;;11.35;100.00;100955.19;4976139;28;20313;-78
2023/09/25 00:57:55;;;;;;;2.27;1.97;;;;;;;11.31;100.00;100964.69;4974441;28;20310;-78
2023/09/25 01:00:21;;;;;;;2.53;1.60;;;;;;;11.24;100.00;100961.25;4964827;28;20417;-78
2023/09/25 01:02:47;;;;;;;3.40;2.03;;;;;;;11.17;100.00;100967.28;4968860;28;20267;-78
2023/09/25 01:05:13;;;;;;;3.33;1.90;;;;;;;11.09;100.00;100956.94;4963601;28;20250;-77
2023/09/25 01:07:39;;;;;;;2.80;2.10;;;;;;;11.00;100.00;100963.84;4960355;28;20778;-78
2023/09/25 01:10:14;;;;;;;2.37;1.80;;;;;;;10.90;100.00;100955.19;4968166;28;20253;-78
2023/09/25 01:12:39;;;;;;;2.70;1.90;;;;;;;10.80;100.00;100962.97;4965118;28;20234;-78
2023/09/25 01:15:06;;;;;;;2.40;2.20;;;;;;;10.73;100.00;100957.78;4967891;28;20184;-79
2023/09/25 01:17:32;;;;;;;2.90;1.57;;;;;;;10.65;100.00;100957.78;4965374;28;20326;-78
2023/09/25 01:19:57;;;;;;;1.60;1.50;;;;;;;10.56;100.00;100958.63;4965279;28;20307;-78
2023/09/25 01:22:23;;;;;;;2.53;1.90;;;;;;;10.48;100.00;100958.59;4967985;28;20623;-77
2023/09/25 01:24:48;;;;;;;3.90;2.20;;;;;;;10.39;100.00;100955.13;4966435;28;20264;-78
2023/09/25 01:27:13;;;;;;;2.43;2.00;;;;;;;10.31;100.00;100957.66;4954873;28;20209;-76
2023/09/25 01:29:38;;;;;;;2.20;1.83;;;;;;;10.22;100.00;100945.56;4965171;28;20194;-78
2023/09/25 01:32:04;;;;;;;2.87;1.90;;;;;;;10.18;100.00;100951.59;4968577;28;21005;-77
2023/09/25 01:34:30;;;;;;;3.20;2.00;;;;;;;10.13;100.00;100951.59;4967204;28;20190;-79
2023/09/25 01:36:56;;;;;;;2.60;1.73;;;;;;;10.11;100.00;100942.06;4964851;28;20233;-78
2023/09/25 01:39:21;;;;;;;4.30;1.97;;;;;;;10.09;100.00;100947.25;4965145;28;20182;-78
2023/09/25 01:41:47;;;;;;;3.33;2.10;;;;;;;10.11;100.00;100944.66;4968085;28;20178;-78
2023/09/25 01:44:12;;;;;;;2.67;1.90;;;;;;;10.12;100.00;100939.50;4957224;28;20179;-78
2023/09/25 01:46:40;;;;;;;3.10;1.93;;;;;;;10.13;100.00;100935.19;4958714;28;20190;-78
2023/09/25 01:49:06;;;;;;;4.20;2.47;;;;;;;10.11;100.00;100929.16;4968753;28;20189;-79
2023/09/25 01:51:32;;;;;;;3.30;1.90;;;;;;;10.10;100.00;100930.88;4973271;28;20193;-77
2023/09/25 01:53:57;;;;;;;2.67;2.07;;;;;;;10.07;100.00;100928.28;4963671;28;20197;-77
2023/09/25 01:56:22;;;;;;;2.23;1.87;;;;;;;10.06;100.00;100934.31;4967138;28;20203;-78
2023/09/25 01:58:48;;;;;;;2.87;2.17;;;;;;;10.02;100.00;100928.28;4960998;28;20697;-79
2023/09/25 02:01:13;;;;;;;2.40;2.00;;;;;;;10.01;100.00;100920.50;4966244;28;20189;-77
2023/09/25 02:03:41;;;;;;;2.77;2.30;;;;;;;9.96;100.00;100917.88;4962846;28;20631;-78
2023/09/25 02:06:06;;;;;;;2.33;1.57;;;;;;;9.91;100.00;100922.16;4963367;28;20229;-78
2023/09/25 02:08:31;;;;;;;3.07;1.97;;;;;;;9.90;100.00;100921.31;4960712;28;20206;-79
2023/09/25 02:10:57;;;;;;;1.90;1.80;;;;;;;9.88;100.00;100919.59;4962549;28;20190;-78
2023/09/25 02:13:22;;;;;;;2.43;2.10;;;;;;;9.85;100.00;100920.44;4966946;28;20196;-79
2023/09/25 02:15:48;;;;;;;2.83;1.83;;;;;;;9.79;100.00;100915.25;4974716;28;20238;-79
2023/09/25 02:18:13;;;;;;;2.23;2.00;;;;;;;9.70;100.00;100913.47;4968651;28;20209;-77
2023/09/25 02:20:39;;;;;;;2.63;2.00;;;;;;;9.63;100.00;100903.09;4965300;28;20196;-77
2023/09/25 02:23:05;;;;;;;2.00;1.80;;;;;;;9.56;100.00;100909.97;4956304;28;20204;-78
2023/09/25 02:25:30;;;;;;;2.53;1.93;;;;;;;9.51;100.00;100904.78;4959574;28;20197;-79
2023/09/25 02:27:56;;;;;;;2.73;1.80;;;;;;;9.46;100.00;100904.72;4963710;28;20804;-77
2023/09/25 02:30:21;;;;;;;2.50;2.10;;;;;;;9.42;100.00;100908.19;4967481;28;20182;-78
2023/09/25 02:32:47;;;;;;;2.00;1.70;;;;;;;9.38;100.00;100888.34;4980024;28;20195;-78
2023/09/25 02:35:13;;;;;;;4.67;2.17;;;;;;;9.34;100.00;100902.09;4962801;28;20186;-78
2023/09/25 02:37:40;;;;;;;2.30;1.70;;;;;;;9.32;100.00;100895.19;4966729;28;20249;-77
2023/09/25 02:40:17;;;;;;;2.57;1.70;;;;;;;9.29;100.00;100893.47;4959528;28;20213;-77
2023/09/25 02:42:45;;;;;;;2.20;2.00;;;;;;;9.28;100.00;100900.34;4964553;28;20188;-78
2023/09/25 02:45:10;;;;;;;3.80;2.27;;;;;;;9.25;100.00;100892.56;4960808;28;20179;-78
2023/09/25 02:47:36;;;;;;;3.00;2.13;;;;;;;9.25;100.00;100891.72;4966227;28;20664;-78
2023/09/25 02:50:01;;;;;;;2.10;1.87;;;;;;;9.26;100.00;100888.28;4966719;28;20202;-78
2023/09/25 02:52:26;;;;;;;2.70;2.23;;;;;;;9.26;100.00;100881.38;4972681;28;20190;-77
2023/09/25 02:54:52;;;;;;;1.80;1.60;;;;;;;9.27;100.00;100887.41;4968882;28;20194;-79
2023/09/25 02:57:17;;;;;;;2.30;2.00;;;;;;;9.28;100.00;100881.41;4955684;28;20957;-78
2023/09/25 02:59:42;;;;;;;3.97;2.13;;;;;;;9.27;100.00;100874.50;4970895;28;20268;-77
2023/09/25 03:02:08;;;;;;;2.93;2.07;;;;;;;9.24;100.00;100874.47;4969529;28;20230;-78
2023/09/25 03:04:33;;;;;;;4.17;2.13;;;;;;;9.18;100.00;100884.75;4956552;28;20626;-79
2023/09/25 03:06:58;;;;;;;3.40;2.33;;;;;;;9.07;100.00;100890.72;4958945;28;20232;-77
2023/09/25 03:09:24;;;;;;;2.80;1.97;;;;;;;8.98;100.00;100878.63;4968461;28;20627;-79
2023/09/25 03:11:50;;;;;;;3.33;1.87;;;;;;;8.87;100.00;100879.38;4967791;28;20989;-78
2023/09/25 03:14:15;;;;;;;2.67;1.90;;;;;;;8.80;100.00;100879.34;4957094;28;20567;-78
2023/09/25 03:16:41;;;;;;;2.57;1.80;;;;;;;8.76;100.00;100887.06;4966497;28;20503;-77
2023/09/25 03:19:06;;;;;;;2.50;1.80;;;;;;;8.74;100.00;100886.19;4964650;28;20213;-78
2023/09/25 03:21:32;;;;;;;2.57;2.03;;;;;;;8.72;100.00;100878.41;4963508;28;20192;-77
2023/09/25 03:23:57;;;;;;;2.13;1.93;;;;;;;8.73;100.00;100881.88;4963604;28;20199;-77
2023/09/25 03:26:22;;;;;;;2.70;2.10;;;;;;;8.71;100.00;100884.41;4954031;28;20292;-77
2023/09/25 03:28:49;;;;;;;2.83;2.20;;;;;;;8.69;100.00;100892.16;4951574;28;20239;-78
2023/09/25 03:31:14;;;;;;;3.23;2.30;;;;;;;8.67;100.00;100893.84;4956164;28;20274;-77
2023/09/25 03:33:41;;;;;;;2.50;2.00;;;;;;;8.65;100.00;100889.53;4970614;28;20276;-79
2023/09/25 03:36:07;;;;;;;2.60;2.30;;;;;;;8.62;100.00;100886.94;4963231;28;20508;-77
2023/09/25 03:38:33;;;;;;;3.40;2.17;;;;;;;8.61;100.00;100886.09;4967314;28;20219;-77
2023/09/25 03:40:59;;;;;;;2.97;2.50;;;;;;;8.63;100.00;100893.81;4964996;28;20198;-77
2023/09/25 03:43:25;;;;;;;2.37;2.00;;;;;;;8.62;100.00;100889.50;4966269;28;20181;-78
2023/09/25 03:45:50;;;;;;;2.47;2.27;;;;;;;8.62;100.00;100894.69;4963293;28;20197;-77
2023/09/25 03:48:16;;;;;;;3.23;2.70;;;;;;;8.60;100.00;100884.34;4962062;28;20268;-77
2023/09/25 03:50:41;;;;;;;3.00;2.20;;;;;;;8.61;100.00;100898.97;4966411;28;20217;-77
2023/09/25 03:53:06;;;;;;;2.97;2.47;;;;;;;8.59;100.00;100894.63;4959996;28;20190;-78
2023/09/25 03:55:32;;;;;;;3.40;2.30;;;;;;;8.58;100.00;100892.91;4959192;28;20190;-78
2023/09/25 03:57:57;;;;;;;2.50;2.23;;;;;;;8.54;100.00;100889.44;4962656;28;20219;-78
2023/09/25 04:00:23;;;;;;;2.70;2.20;;;;;;;8.52;100.00;100896.31;4966821;28;20192;-76
2023/09/25 04:02:49;;;;;;;3.70;2.70;;;;;;;8.48;100.00;100900.56;4960002;28;20204;-78
2023/09/25 04:05:14;;;;;;;2.63;2.37;;;;;;;8.46;100.00;100897.06;4959617;28;20191;-79
2023/09/25 04:07:39;;;;;;;4.63;2.67;;;;;;;8.41;100.00;100898.75;4960788;28;20200;-78
2023/09/25 04:10:07;;;;;;;2.67;2.43;;;;;;;8.38;100.00;100896.16;4960191;28;20194;-78
2023/09/25 04:12:36;;;;;;;3.63;2.60;;;;;;;8.36;100.00;100903.84;4969830;28;20200;-79
2023/09/25 04:15:02;;;;;;;3.10;2.27;;;;;;;8.33;100.00;100903.81;4967172;28;20193;-77
2023/09/25 04:17:27;;;;;;;2.97;2.30;;;;;;;8.28;100.00;100897.78;4964449;28;20237;-77
2023/09/25 04:19:53;;;;;;;2.77;2.10;;;;;;;8.21;100.00;100898.53;4966701;28;20229;-78
2023/09/25 04:22:19;;;;;;;2.63;2.17;;;;;;;8.12;100.00;100894.16;4960908;28;20196;-77
2023/09/25 04:24:44;;;;;;;2.70;2.10;;;;;;;8.06;100.00;100905.25;4960321;28;20186;-77
2023/09/25 04:27:10;;;;;;;2.53;1.97;;;;;;;8.02;100.00;100897.47;4963401;28;20217;-78
2023/09/25 04:29:38;;;;;;;2.50;1.90;;;;;;;8.00;100.00;100909.47;4964227;28;20186;-78
2023/09/25 04:32:03;;;;;;;4.33;2.23;;;;;;;8.00;100.00;100907.78;4957127;28;20186;-78
2023/09/25 04:34:29;;;;;;;4.83;2.67;;;;;;;8.02;100.00;100903.47;4964249;28;20197;-80
2023/09/25 04:36:54;;;;;;;2.23;2.03;;;;;;;8.00;100.00;100905.22;4965212;28;20279;-77
2023/09/25 04:39:20;;;;;;;3.37;2.50;;;;;;;8.00;100.00;100905.22;4962281;28;20855;-77
2023/09/25 04:41:46;;;;;;;3.57;2.20;;;;;;;8.00;100.00;100894.91;4965982;28;20189;-77
2023/09/25 04:44:12;;;;;;;2.63;1.97;;;;;;;8.02;100.00;100900.06;4952938;28;20189;-77
2023/09/25 04:46:37;;;;;;;3.90;2.10;;;;;;;8.01;100.00;100904.38;4955283;28;20684;-76
2023/09/25 04:49:06;;;;;;;5.47;2.83;;;;;;;8.10;100.00;100906.16;4961362;28;20191;-78
2023/09/25 04:51:32;;;;;;;3.77;2.40;;;;;;;8.01;100.00;100900.91;4969607;28;20550;-78
2023/09/25 04:53:57;;;;;;;5.50;3.00;;;;;;;8.17;100.00;100905.38;4961763;28;20194;-77
2023/09/25 04:56:23;;;;;;;2.50;2.30;;;;;;;8.07;100.00;100906.13;4961498;28;20732;-77
2023/09/25 04:58:49;;;;;;;7.77;3.03;;;;;;;8.19;100.00;100906.28;4961342;28;20236;-77
2023/09/25 05:01:14;;;;;;;3.13;2.60;;;;;;;8.13;100.00;100916.50;4964958;28;20654;-78
2023/09/25 05:03:40;;;;;;;2.77;2.37;;;;;;;8.08;100.00;100913.88;4968982;28;20231;-78
2023/09/25 05:06:08;;;;;;;3.10;2.43;;;;;;;8.04;100.00;100925.00;4960166;28;20205;-78
2023/09/25 05:08:33;;;;;;;3.30;2.30;;;;;;;8.02;100.00;100926.69;4970116;28;20239;-77
2023/09/25 05:10:58;;;;;;;4.50;2.63;;;;;;;8.02;100.00;100925.84;4966903;28;20199;-78
2023/09/25 05:13:24;;;;;;;7.73;2.27;;;;;;;7.98;100.00;100927.53;4955733;28;20186;-79
2023/09/25 05:15:49;;;;;;;3.80;2.20;;;;;;;7.97;100.00;100924.91;4961762;28;20192;-78
2023/09/25 05:18:15;;;;;;;2.30;2.10;;;;;;;7.98;100.00;100931.78;4981789;28;20237;-78
2023/09/25 05:20:40;;;;;;;2.90;1.83;;;;;;;7.99;100.00;100921.53;4966197;28;20745;-79
2023/09/25 05:23:05;;;;;;;2.60;2.00;;;;;;;7.98;100.00;100919.78;4960160;28;20193;-77
2023/09/25 05:25:31;;;;;;;3.10;1.97;;;;;;;7.98;100.00;100922.38;4959760;28;20226;-78
2023/09/25 05:27:57;;;;;;;2.67;1.90;;;;;;;7.97;100.00;100920.63;4962404;28;20227;-77
2023/09/25 05:30:23;;;;;;;3.90;2.17;;;;;;;8.00;100.00;100930.09;4957430;28;20264;-79
2023/09/25 05:32:50;;;;;;;3.43;2.30;;;;;;;8.02;100.00;100925.84;4960018;28;20673;-78
2023/09/25 05:35:17;;;;;;;3.43;2.20;;;;;;;8.05;100.00;100939.63;4951758;28;20535;-78
2023/09/25 05:37:45;;;;;;;3.80;2.60;;;;;;;8.08;100.00;100923.34;4956043;28;21055;-78
2023/09/25 05:40:12;;;;;;;3.27;2.27;;;;;;;8.12;100.00;100939.69;4966036;28;20758;-79
2023/09/25 05:42:42;;;;;;;3.80;2.40;;;;;;;8.15;100.00;100945.75;4956790;28;20184;-78
2023/09/25 05:45:10;;;;;;;5.00;3.00;;;;;;;8.17;100.00;100938.03;4964380;28;20290;-78
2023/09/25 05:47:35;;;;;;;3.87;2.90;;;;;;;8.17;100.00;100943.19;4961426;28;20689;-78
2023/09/25 05:50:01;;;;;;;3.33;2.50;;;;;;;8.16;100.00;100944.06;4963599;28;20251;-78
2023/09/25 05:52:28;;;;;;;3.97;2.30;;;;;;;8.17;100.00;100948.34;4963907;28;20184;-79
2023/09/25 05:54:54;;;;;;;4.57;2.67;;;;;;;8.20;100.00;100941.53;4965241;28;20280;-78
2023/09/25 05:57:19;;;;;;;2.70;2.30;;;;;;;8.28;100.00;100949.34;4955208;28;20304;-80
2023/09/25 05:59:44;;;;;;;2.10;1.90;;;;;;;8.35;100.00;100956.28;4963474;28;20688;-78
2023/09/25 06:02:10;;;;;;;2.93;2.10;;;;;;;8.45;100.00;100956.41;4960421;28;20946;-78
2023/09/25 06:04:38;;;;;;;3.47;1.97;;;;;;;8.52;100.00;100960.78;4964574;28;20788;-79
2023/09/25 06:07:04;;;;;;;3.27;1.87;;;;;;;8.59;100.00;100961.72;4967201;28;20555;-79
2023/09/25 06:09:30;;;;;;;2.33;1.97;;;;;;;8.64;100.00;100960.91;4980274;28;20274;-79
2023/09/25 06:11:57;;;;;;;2.30;2.10;;;;;;;8.69;100.00;100961.84;4976367;28;20291;-78
2023/09/25 06:14:23;;;;;;;2.77;2.30;;;;;;;8.77;100.00;100958.47;4964957;28;20273;-78
2023/09/25 06:16:48;;;;;;;3.33;2.50;;;;;;;8.84;100.00;100968.00;4956779;28;20981;-78
2023/09/25 06:19:14;;;;;;;2.43;2.10;;;;;;;8.91;100.00;100974.94;4966756;28;20205;-78
2023/09/25 06:21:40;;;;;;;3.23;2.20;;;;;;;8.98;100.00;100981.03;4969056;28;20190;-78
2023/09/25 06:24:09;;;;;;;3.43;2.23;;;;;;;9.04;100.00;100975.91;4966835;28;20273;-78
2023/09/25 06:26:35;;;;;;;2.80;2.50;;;;;;;9.14;100.00;100979.44;4965525;28;20747;-78
2023/09/25 06:29:00;;;;;;;3.00;2.53;;;;;;;9.24;100.00;100982.94;4967713;28;20336;-79
2023/09/25 06:31:26;;;;;;;3.10;2.70;;;;;;;9.30;100.00;100985.59;4964529;28;20283;-78
2023/09/25 06:33:52;;;;;;;9.90;3.13;;;;;;;9.35;100.00;100989.06;4968514;28;20280;-79
2023/09/25 06:36:18;;;;;;;3.37;2.50;;;;;;;9.44;100.00;100988.25;4967697;28;20206;-78
2023/09/25 06:38:44;;;;;;;3.93;2.67;;;;;;;9.51;100.00;100977.13;4966411;28;20236;-78
2023/09/25 06:41:11;;;;;;;3.87;2.87;;;;;;;9.60;100.00;100979.75;4961919;28;20643;-78
2023/09/25 06:43:36;;;;;;;2.90;2.70;;;;;;;9.72;100.00;100978.09;4961153;28;20186;-79
2023/09/25 06:46:02;;;;;;;3.80;2.67;;;;;;;9.76;100.00;100983.28;4969637;28;20205;-79
2023/09/25 06:48:27;;;;;;;2.97;2.77;;;;;;;9.83;100.00;100981.59;4962464;28;20269;-78
2023/09/25 06:50:52;;;;;;;3.13;2.80;;;;;;;9.92;100.00;100988.53;4961512;28;20281;-79
2023/09/25 06:53:18;;;;;;;3.03;2.60;;;;;;;10.02;100.00;100977.41;4967976;28;20279;-78
2023/09/25 06:55:44;;;;;;;2.77;2.50;;;;;;;10.12;100.00;100980.00;4967872;28;20193;-79
2023/09/25 06:58:10;;;;;;;3.77;3.10;;;;;;;10.24;100.00;100984.38;4965749;28;20223;-79
2023/09/25 07:00:35;;;;;;;4.13;3.33;;;;;;;10.33;100.00;100985.28;4968084;28;20198;-78
2023/09/25 07:03:01;;;;;;;3.00;2.67;;;;;;;10.42;100.00;100984.47;4963784;28;20958;-78
2023/09/25 07:05:28;;;;;;;3.30;2.60;;;;;;;10.62;100.00;100988.81;4974979;28;20237;-79
2023/09/25 07:07:54;;;;;;;2.77;2.50;;;;;;;10.76;100.00;100986.28;4966278;28;20298;-78
2023/09/25 07:10:19;;;;;;;5.20;3.30;;;;;;;10.81;100.00;100987.16;4972136;28;20273;-78
2023/09/25 07:12:44;;;;;;;6.13;3.10;;;;;;;10.88;100.00;100993.19;4965143;28;20191;-78
2023/09/25 07:15:10;;;;;;;2.97;2.60;;;;;;;10.95;100.00;100993.22;4969986;28;20196;-79
2023/09/25 07:17:36;;;;;;;3.60;2.53;;;;;;;11.08;100.00;100998.38;4962692;28;20711;-78
2023/09/25 07:20:01;;;;;;;4.80;2.43;;;;;;;11.27;100.00;100994.91;4962469;28;20836;-78
2023/09/25 07:22:27;;;;;;;3.63;2.50;;;;;;;11.48;100.00;101000.09;4969198;28;20625;-78
2023/09/25 07:24:53;;;;;;;2.97;2.63;;;;;;;11.56;100.00;101004.41;4967084;28;20253;-78
2023/09/25 07:27:19;;;;;;;4.57;2.70;;;;;;;11.85;100.00;101002.59;4967172;28;20697;-79
2023/09/25 07:29:46;;;;;;;2.57;2.37;;;;;;;12.09;100.00;100998.25;4969193;28;20213;-80
2023/09/25 07:32:12;;;;;;;2.43;2.23;;;;;;;12.28;100.00;100999.88;4964414;28;20261;-79
2023/09/25 07:34:41;;;;;;;2.87;2.10;;;;;;;12.48;100.00;100996.34;4957091;28;20186;-79
2023/09/25 07:37:07;;;;;;;3.33;2.63;;;;;;;12.68;100.00;100998.81;4951426;28;20214;-79
2023/09/25 07:39:34;;;;;;;6.07;3.30;;;;;;;12.85;100.00;100996.13;4953334;28;20194;-79
2023/09/25 07:42:00;;;;;;;3.17;2.70;;;;;;;12.80;100.00;100998.72;4954734;28;20257;-78
2023/09/25 07:44:26;;;;;;;3.80;2.80;;;;;;;12.93;100.00;100989.13;4955280;28;20194;-78
2023/09/25 07:46:57;;;;;;;4.40;2.90;;;;;;;12.76;100.00;100997.03;4966919;28;20204;-79
2023/09/25 07:49:23;;;;;;;4.20;3.30;;;;;;;12.81;100.00;100992.66;4960137;28;20213;-77
2023/09/25 07:51:49;;;;;;;3.93;2.90;;;;;;;12.69;99.90;100994.50;4947612;28;20729;-78
2023/09/25 07:54:15;;;;;;;4.80;3.20;;;;;;;12.49;100.00;100996.31;4954693;28;20187;-76
2023/09/25 07:56:40;;;;;;;3.77;3.10;;;;;;;12.37;100.00;101000.72;4956664;28;20303;-76
2023/09/25 07:59:05;;;;;;;3.87;2.93;;;;;;;12.47;100.00;101000.69;4972332;28;20196;-77
2023/09/25 08:01:31;;;;;;;4.87;3.10;;;;;;;12.55;100.00;101005.81;4968319;28;20193;-77
2023/09/25 08:03:58;;;;;;;3.93;2.93;;;;;;;12.58;100.00;101003.19;4961370;28;20203;-77
2023/09/25 08:06:27;;;;;;;5.37;2.87;;;;;;;12.56;100.00;101009.28;4961476;28;20720;-78
2023/09/25 08:08:53;;;;;;;6.10;2.83;;;;;;;12.77;100.00;101009.16;4965303;28;20272;-78
2023/09/25 08:11:19;;;;;;;3.43;2.50;;;;;;;12.85;100.00;101018.63;4989296;28;20182;-78
2023/09/25 08:13:44;;;;;;;3.37;2.97;;;;;;;12.96;100.00;101020.28;4980314;28;20196;-77
2023/09/25 08:16:09;;;;;;;3.17;2.50;;;;;;;13.10;100.00;101029.69;4960058;28;20192;-78
2023/09/25 08:18:35;;;;;;;2.53;2.20;;;;;;;13.22;100.00;101031.34;4967990;28;20213;-77
2023/09/25 08:21:01;;;;;;;2.60;2.40;;;;;;;13.33;100.00;101026.91;4955202;28;20197;-78
2023/09/25 08:23:27;;;;;;;3.73;2.53;;;;;;;13.39;100.00;101039.84;4962388;28;20273;-77
2023/09/25 08:25:53;;;;;;;2.83;2.60;;;;;;;13.54;100.00;101038.03;4966058;28;20190;-78
2023/09/25 08:28:19;;;;;;;2.63;2.37;;;;;;;13.67;100.00;101038.78;4955839;28;20304;-78
2023/09/25 08:30:44;;;;;;;2.97;2.53;;;;;;;13.76;100.00;101028.31;4967593;28;20695;-77
2023/09/25 08:33:10;;;;;;;11.37;3.53;;;;;;;13.92;100.00;101028.97;4961540;28;20194;-78
2023/09/25 08:35:36;;;;;;;4.43;3.03;;;;;;;14.03;100.00;101029.72;4967372;28;20304;-77
2023/09/25 08:38:01;;;;;;;5.73;3.03;;;;;;;14.02;100.00;101030.59;4959236;28;20290;-78
2023/09/25 08:40:30;;;;;;;4.83;2.90;;;;;;;14.14;100.00;101027.00;4959697;28;20281;-78
2023/09/25 08:42:56;;;;;;;6.17;3.20;;;;;;;14.14;100.00;101029.59;4957143;28;20214;-78
2023/09/25 08:45:22;;;;;;;4.83;3.00;;;;;;;14.14;100.00;101026.16;4967895;28;20221;-78
2023/09/25 08:47:47;;;;;;;3.83;2.50;;;;;;;14.29;100.00;101025.94;4978695;28;20244;-78
2023/09/25 08:50:12;;;;;;;3.33;2.53;;;;;;;14.42;100.00;101025.81;4962564;28;20220;-79
2023/09/25 08:52:39;;;;;;;2.73;2.43;;;;;;;14.45;100.00;101023.13;4968750;28;20746;-78
2023/09/25 08:55:05;;;;;;;3.27;2.53;;;;;;;14.54;100.00;101017.81;4967825;28;20194;-80
2023/09/25 08:57:32;;;;;;;3.97;2.70;;;;;;;14.50;99.31;101020.50;4971422;28;20225;-79
2023/09/25 09:00:11;;;;;;;2.63;2.43;;;;;;;14.30;96.78;101025.06;4967519;28;20194;-79
2023/09/25 09:02:40;;;;;;;3.83;2.20;;;;;;;14.53;96.45;101017.81;4970968;28;20850;-79
2023/09/25 09:05:07;;;;;;;3.00;2.00;;;;;;;14.58;96.33;101026.44;4971451;28;20340;-79
2023/09/25 09:07:33;;;;;;;3.50;1.90;;;;;;;14.37;95.62;101024.97;4969080;28;20698;-78
2023/09/25 09:09:59;;;;;;;3.20;2.57;;;;;;;14.40;94.91;101015.38;4970852;28;20205;-78
2023/09/25 09:12:24;;;;;;;3.60;2.30;;;;;;;14.58;95.45;101022.09;4966921;28;20186;-78
2023/09/25 09:14:50;;;;;;;2.67;2.30;;;;;;;14.80;95.96;101014.00;4974846;28;20236;-79
2023/09/25 09:17:15;;;;;;;2.80;2.43;;;;;;;14.80;93.79;101005.34;4970049;28;20567;-79
2023/09/25 09:19:46;;;;;;;2.90;2.20;;;;;;;14.98;93.83;101010.25;4971891;28;20201;-78
2023/09/25 09:22:15;;;;;;;4.93;2.40;;;;;;;14.93;92.67;100996.44;4970552;28;20945;-78
2023/09/25 09:24:41;;;;;;;3.87;1.93;;;;;;;14.87;93.36;100999.13;4968890;28;20571;-78
2023/09/25 09:27:07;;;;;;;2.33;2.13;;;;;;;14.94;93.66;101008.59;4967625;28;20207;-79
2023/09/25 09:29:44;;;;;;;2.83;2.10;;;;;;;15.09;92.49;101005.75;4970834;28;20193;-78
2023/09/25 09:32:10;;;;;;;2.73;2.30;;;;;;;15.03;92.87;101007.59;4969713;28;20185;-79
2023/09/25 09:34:36;;;;;;;4.97;2.40;;;;;;;15.12;92.23;101001.38;4973695;28;20210;-77
2023/09/25 09:37:02;;;;;;;2.53;2.17;;;;;;;15.04;92.82;101002.34;4974212;28;20225;-79
2023/09/25 09:39:34;;;;;;;3.87;2.43;;;;;;;15.28;92.34;101002.81;4971697;28;20190;-78
2023/09/25 09:42:04;;;;;;;3.00;2.23;;;;;;;15.58;90.76;101003.16;4964635;28;20198;-79
2023/09/25 09:44:29;;;;;;;5.33;2.20;;;;;;;15.44;89.56;100997.31;4965208;28;20202;-79
2023/09/25 09:46:55;;;;;;;3.37;2.37;;;;;;;15.51;89.65;100985.91;4978777;28;20681;-79
2023/09/25 09:49:23;;;;;;;2.07;1.80;;;;;;;15.82;89.61;100993.16;4971708;28;20201;-78
2023/09/25 09:51:50;;;;;;;5.03;2.33;;;;;;;15.70;89.89;100986.41;4969867;28;20204;-78
2023/09/25 09:54:18;;;;;;;2.70;2.30;;;;;;;16.04;89.55;100977.06;4967797;28;20186;-78
2023/09/25 09:56:47;;;;;;;2.63;2.23;;;;;;;15.89;89.97;100979.09;4967411;28;20245;-79
2023/09/25 09:59:14;;;;;;;3.10;1.90;;;;;;;15.92;89.38;100975.59;4958028;28;20278;-77
2023/09/25 10:01:44;;;;;;;3.00;2.10;;;;;;;16.08;88.96;100965.69;4970549;28;20202;-79
2023/09/25 10:04:10;;;;;;;4.07;2.50;;;;;;;15.87;88.94;100967.88;4955130;28;20707;-78
2023/09/25 10:06:46;;;;;;;6.10;5.50;;;;;;;15.99;89.51;100967.59;4971336;28;20192;-78
2023/09/25 10:09:13;;;;;;;3.07;2.63;;;;;;;16.12;88.48;100965.56;4964095;28;20208;-80
2023/09/25 10:11:41;;;;;;;2.40;2.20;;;;;;;16.24;87.79;100966.22;4978448;28;20198;-80
2023/09/25 10:14:08;;;;;;;2.50;2.00;;;;;;;16.34;86.15;100959.03;4968093;28;20236;-77
2023/09/25 10:17:00;;;;;;;2.47;2.00;;;;;;;16.34;86.61;100957.28;4971513;28;20205;-78
2023/09/25 10:19:52;;;;;;;2.47;1.90;;;;;;;16.25;85.59;100947.91;4959564;28;20226;-78
2023/09/25 10:22:30;;;;;;;3.07;1.73;;;;;;;16.44;84.41;100944.88;4960418;28;20194;-77
2023/09/25 10:25:14;;;;;;;2.60;1.80;;;;;;;16.77;83.98;100948.44;4964237;28;20209;-79
2023/09/25 10:27:43;;;;;;;2.43;1.60;;;;;;;16.97;82.20;100951.50;4955943;28;20719;-78
2023/09/25 10:30:12;;;;;;;3.33;1.70;;;;;;;17.04;84.05;100958.31;4976082;28;20196;-79
2023/09/25 10:32:40;;;;;;;2.00;1.80;;;;;;;16.83;81.75;100950.06;4970255;28;20210;-78
2023/09/25 10:35:37;;;;;;;3.17;2.43;;;;;;;16.97;82.26;100947.13;4978269;28;20682;-79
2023/09/25 10:38:13;;;;;;;2.30;1.90;;;;;;;17.11;83.06;100945.94;4965851;28;20235;-77
2023/09/25 10:40:43;;;;;;;3.97;2.03;;;;;;;17.19;82.57;100946.56;4975174;28;20200;-77
2023/09/25 10:43:09;;;;;;;4.70;1.77;;;;;;;17.07;81.58;100942.53;4961569;28;20202;-76
2023/09/25 10:45:37;;;;;;;2.13;1.73;;;;;;;17.39;81.50;100943.47;4968197;28;20289;-77
2023/09/25 10:48:02;;;;;;;3.23;2.13;;;;;;;17.50;81.42;100946.63;4984107;28;20205;-78
2023/09/25 10:50:28;;;;;;;2.90;2.20;;;;;;;17.56;80.59;100942.97;4975490;28;20518;-77
2023/09/25 10:52:53;;;;;;;2.80;2.47;;;;;;;17.74;81.97;100948.63;4965766;28;20216;-78
2023/09/25 10:55:20;;;;;;;2.27;2.07;;;;;;;17.65;81.33;100940.09;4969620;28;20192;-78
2023/09/25 10:57:45;;;;;;;3.17;2.10;;;;;;;17.61;79.25;100933.25;4980704;28;20241;-77
2023/09/25 11:00:15;;;;;;;3.60;2.70;;;;;;;17.64;81.51;100922.69;4973691;28;20201;-79
2023/09/25 11:02:40;;;;;;;5.00;2.53;;;;;;;17.77;80.33;100922.34;4964413;28;21086;-78
2023/09/25 11:05:08;;;;;;;2.40;2.20;;;;;;;17.83;79.34;100928.25;4967342;28;20196;-79
2023/09/25 11:07:38;;;;;;;2.20;2.00;;;;;;;17.89;78.34;100932.47;4983311;28;20215;-78
2023/09/25 11:10:04;;;;;;;4.10;2.47;;;;;;;17.81;79.10;100923.97;4975814;28;20273;-79
2023/09/25 11:12:33;;;;;;;4.57;2.43;;;;;;;17.79;78.48;100925.75;4967097;28;20196;-78
2023/09/25 11:14:59;;;;;;;3.33;2.23;;;;;;;18.01;79.72;100919.94;4974424;28;20200;-79
2023/09/25 11:17:25;;;;;;;7.53;2.40;;;;;;;17.84;78.79;100916.00;4974923;28;20217;-79
2023/09/25 11:19:53;;;;;;;3.83;2.23;;;;;;;17.87;76.98;100912.44;4978265;28;20228;-80